sensor_id;sensor_type;location;lat;lon;timestamp;P1;durP1;ratioP1;P2;durP2;ratioP2
42244;SDS011;27912;51.828;5.688;2024-02-26T00:01:53;6.82;;;2.30;;
42244;SDS011;27912;51.828;5.688;2024-02-26T00:04:19;4.90;;;3.05;;
42244;SDS011;27912;51.828;5.688;2024-02-26T00:06:46;4.70;;;3.05;;
42244;SDS011;27912;51.828;5.688;2024-02-26T00:09:13;3.63;;;2.38;;
42244;SDS011;27912;51.828;5.688;2024-02-26T00:11:38;6.00;;;3.10;;
42244;SDS011;27912;51.828;5.688;2024-02-26T00:14:04;5.70;;;2.90;;
42244;SDS011;27912;51.828;5.688;2024-02-26T00:16:30;4.50;;;3.55;;
42244;SDS011;27912;51.828;5.688;2024-02-26T00:18:55;5.70;;;3.08;;
42244;SDS011;27912;51.828;5.688;2024-02-26T00:21:21;4.13;;;2.83;;
42244;SDS011;27912;51.828;5.688;2024-02-26T00:23:47;5.93;;;3.40;;
42244;SDS011;27912;51.828;5.688;2024-02-26T00:26:15;7.00;;;3.22;;
42244;SDS011;27912;51.828;5.688;2024-02-26T00:28:40;7.07;;;3.63;;
42244;SDS011;27912;51.828;5.688;2024-02-26T00:33:47;3.88;;;2.58;;
42244;SDS011;27912;51.828;5.688;2024-02-26T00:36:12;5.72;;;3.60;;
42244;SDS011;27912;51.828;5.688;2024-02-26T00:38:38;7.20;;;3.45;;
42244;SDS011;27912;51.828;5.688;2024-02-26T00:41:05;4.80;;;3.00;;
42244;SDS011;27912;51.828;5.688;2024-02-26T00:43:31;6.90;;;3.10;;
42244;SDS011;27912;51.828;5.688;2024-02-26T00:45:56;7.65;;;2.90;;
42244;SDS011;27912;51.828;5.688;2024-02-26T00:48:22;4.47;;;2.72;;
42244;SDS011;27912;51.828;5.688;2024-02-26T00:50:50;4.25;;;2.55;;
42244;SDS011;27912;51.828;5.688;2024-02-26T00:53:16;3.53;;;2.03;;
42244;SDS011;27912;51.828;5.688;2024-02-26T00:55:42;4.05;;;2.60;;
42244;SDS011;27912;51.828;5.688;2024-02-26T00:58:07;3.30;;;2.00;;
42244;SDS011;27912;51.828;5.688;2024-02-26T01:00:34;5.90;;;3.25;;
42244;SDS011;27912;51.828;5.688;2024-02-26T01:03:00;5.05;;;2.28;;
42244;SDS011;27912;51.828;5.688;2024-02-26T01:05:25;3.70;;;2.20;;
42244;SDS011;27912;51.828;5.688;2024-02-26T01:07:51;4.13;;;1.73;;
42244;SDS011;27912;51.828;5.688;2024-02-26T01:10:17;4.20;;;2.33;;
42244;SDS011;27912;51.828;5.688;2024-02-26T01:12:42;4.85;;;2.67;;
42244;SDS011;27912;51.828;5.688;2024-02-26T01:15:08;4.68;;;2.40;;
42244;SDS011;27912;51.828;5.688;2024-02-26T01:17:34;3.95;;;2.38;;
42244;SDS011;27912;51.828;5.688;2024-02-26T01:20:00;4.78;;;2.40;;
42244;SDS011;27912;51.828;5.688;2024-02-26T01:22:25;3.20;;;2.25;;
42244;SDS011;27912;51.828;5.688;2024-02-26T01:24:51;2.88;;;2.35;;
42244;SDS011;27912;51.828;5.688;2024-02-26T01:27:16;3.58;;;2.33;;
42244;SDS011;27912;51.828;5.688;2024-02-26T01:29:42;4.07;;;2.35;;
42244;SDS011;27912;51.828;5.688;2024-02-26T01:32:07;3.28;;;1.65;;
42244;SDS011;27912;51.828;5.688;2024-02-26T01:34:33;3.00;;;1.83;;
42244;SDS011;27912;51.828;5.688;2024-02-26T01:36:59;3.70;;;1.95;;
42244;SDS011;27912;51.828;5.688;2024-02-26T01:39:25;4.38;;;1.60;;
42244;SDS011;27912;51.828;5.688;2024-02-26T01:41:52;2.80;;;1.77;;
42244;SDS011;27912;51.828;5.688;2024-02-26T01:44:18;3.17;;;2.00;;
42244;SDS011;27912;51.828;5.688;2024-02-26T01:46:44;3.13;;;1.67;;
42244;SDS011;27912;51.828;5.688;2024-02-26T01:49:10;5.35;;;2.13;;
42244;SDS011;27912;51.828;5.688;2024-02-26T01:51:38;3.75;;;1.90;;
42244;SDS011;27912;51.828;5.688;2024-02-26T01:54:04;3.35;;;1.90;;
42244;SDS011;27912;51.828;5.688;2024-02-26T01:56:32;5.38;;;2.75;;
42244;SDS011;27912;51.828;5.688;2024-02-26T01:59:00;4.45;;;2.42;;
42244;SDS011;27912;51.828;5.688;2024-02-26T02:01:27;5.45;;;2.33;;
42244;SDS011;27912;51.828;5.688;2024-02-26T02:03:55;3.88;;;2.25;;
42244;SDS011;27912;51.828;5.688;2024-02-26T02:06:22;3.63;;;2.22;;
42244;SDS011;27912;51.828;5.688;2024-02-26T02:08:48;3.95;;;2.58;;
42244;SDS011;27912;51.828;5.688;2024-02-26T02:11:14;3.28;;;2.30;;
42244;SDS011;27912;51.828;5.688;2024-02-26T02:13:40;4.43;;;2.22;;
42244;SDS011;27912;51.828;5.688;2024-02-26T02:16:06;4.68;;;2.47;;
42244;SDS011;27912;51.828;5.688;2024-02-26T02:18:32;6.15;;;2.45;;
42244;SDS011;27912;51.828;5.688;2024-02-26T02:21:00;4.97;;;2.45;;
42244;SDS011;27912;51.828;5.688;2024-02-26T02:23:25;4.13;;;2.75;;
42244;SDS011;27912;51.828;5.688;2024-02-26T02:25:51;3.55;;;2.20;;
42244;SDS011;27912;51.828;5.688;2024-02-26T02:28:17;5.10;;;2.50;;
42244;SDS011;27912;51.828;5.688;2024-02-26T02:30:44;3.80;;;2.30;;
42244;SDS011;27912;51.828;5.688;2024-02-26T02:33:10;5.75;;;2.70;;
42244;SDS011;27912;51.828;5.688;2024-02-26T02:35:37;3.80;;;2.33;;
42244;SDS011;27912;51.828;5.688;2024-02-26T02:38:03;5.97;;;2.90;;
42244;SDS011;27912;51.828;5.688;2024-02-26T02:40:29;4.10;;;2.38;;
42244;SDS011;27912;51.828;5.688;2024-02-26T02:42:54;3.70;;;2.30;;
42244;SDS011;27912;51.828;5.688;2024-02-26T02:45:20;3.58;;;2.35;;
42244;SDS011;27912;51.828;5.688;2024-02-26T02:47:45;2.97;;;2.08;;
42244;SDS011;27912;51.828;5.688;2024-02-26T02:50:11;5.55;;;2.15;;
42244;SDS011;27912;51.828;5.688;2024-02-26T02:52:36;3.55;;;2.55;;
42244;SDS011;27912;51.828;5.688;2024-02-26T02:55:02;3.72;;;2.63;;
42244;SDS011;27912;51.828;5.688;2024-02-26T02:57:28;6.38;;;2.50;;
42244;SDS011;27912;51.828;5.688;2024-02-26T02:59:55;2.83;;;1.73;;
42244;SDS011;27912;51.828;5.688;2024-02-26T03:02:21;5.57;;;2.53;;
42244;SDS011;27912;51.828;5.688;2024-02-26T03:04:46;5.00;;;2.40;;
42244;SDS011;27912;51.828;5.688;2024-02-26T03:07:12;2.40;;;1.73;;
42244;SDS011;27912;51.828;5.688;2024-02-26T03:09:38;4.88;;;2.47;;
42244;SDS011;27912;51.828;5.688;2024-02-26T03:12:03;4.15;;;2.65;;
42244;SDS011;27912;51.828;5.688;2024-02-26T03:14:29;4.10;;;2.47;;
42244;SDS011;27912;51.828;5.688;2024-02-26T03:16:55;4.72;;;2.65;;
42244;SDS011;27912;51.828;5.688;2024-02-26T03:19:21;5.72;;;2.75;;
42244;SDS011;27912;51.828;5.688;2024-02-26T03:21:46;4.60;;;2.30;;
42244;SDS011;27912;51.828;5.688;2024-02-26T03:24:12;5.35;;;2.65;;
42244;SDS011;27912;51.828;5.688;2024-02-26T03:26:37;4.28;;;2.33;;
42244;SDS011;27912;51.828;5.688;2024-02-26T03:29:03;4.85;;;2.30;;
42244;SDS011;27912;51.828;5.688;2024-02-26T03:31:30;4.60;;;2.42;;
42244;SDS011;27912;51.828;5.688;2024-02-26T03:33:55;3.88;;;2.50;;
42244;SDS011;27912;51.828;5.688;2024-02-26T03:36:21;2.85;;;2.08;;
42244;SDS011;27912;51.828;5.688;2024-02-26T03:38:47;3.88;;;2.72;;
42244;SDS011;27912;51.828;5.688;2024-02-26T03:41:15;3.88;;;2.28;;
42244;SDS011;27912;51.828;5.688;2024-02-26T03:43:41;4.00;;;2.40;;
42244;SDS011;27912;51.828;5.688;2024-02-26T03:46:07;6.20;;;2.47;;
42244;SDS011;27912;51.828;5.688;2024-02-26T03:48:33;4.07;;;2.00;;
42244;SDS011;27912;51.828;5.688;2024-02-26T03:50:59;4.38;;;2.33;;
42244;SDS011;27912;51.828;5.688;2024-02-26T03:53:25;4.88;;;2.50;;
42244;SDS011;27912;51.828;5.688;2024-02-26T03:55:51;4.75;;;2.10;;
42244;SDS011;27912;51.828;5.688;2024-02-26T03:58:17;3.80;;;2.15;;
42244;SDS011;27912;51.828;5.688;2024-02-26T04:00:43;2.85;;;1.60;;
42244;SDS011;27912;51.828;5.688;2024-02-26T04:03:09;4.43;;;2.28;;
42244;SDS011;27912;51.828;5.688;2024-02-26T04:05:35;4.30;;;2.05;;
42244;SDS011;27912;51.828;5.688;2024-02-26T04:08:00;3.35;;;2.33;;
42244;SDS011;27912;51.828;5.688;2024-02-26T04:10:26;4.65;;;2.15;;
42244;SDS011;27912;51.828;5.688;2024-02-26T04:12:51;4.00;;;2.08;;
42244;SDS011;27912;51.828;5.688;2024-02-26T04:15:17;4.57;;;2.30;;
42244;SDS011;27912;51.828;5.688;2024-02-26T04:17:43;3.35;;;2.35;;
42244;SDS011;27912;51.828;5.688;2024-02-26T04:20:12;3.05;;;2.05;;
42244;SDS011;27912;51.828;5.688;2024-02-26T04:22:39;3.75;;;2.55;;
42244;SDS011;27912;51.828;5.688;2024-02-26T04:25:04;4.90;;;2.80;;
42244;SDS011;27912;51.828;5.688;2024-02-26T04:27:30;4.82;;;3.10;;
42244;SDS011;27912;51.828;5.688;2024-02-26T04:29:56;4.55;;;2.25;;
42244;SDS011;27912;51.828;5.688;2024-02-26T04:32:21;5.38;;;2.60;;
42244;SDS011;27912;51.828;5.688;2024-02-26T04:34:47;3.13;;;2.30;;
42244;SDS011;27912;51.828;5.688;2024-02-26T04:37:13;5.13;;;2.55;;
42244;SDS011;27912;51.828;5.688;2024-02-26T04:39:38;6.38;;;3.22;;
42244;SDS011;27912;51.828;5.688;2024-02-26T04:42:04;4.53;;;2.65;;
42244;SDS011;27912;51.828;5.688;2024-02-26T04:44:29;7.50;;;2.72;;
42244;SDS011;27912;51.828;5.688;2024-02-26T04:46:55;4.25;;;3.05;;
42244;SDS011;27912;51.828;5.688;2024-02-26T04:49:21;4.55;;;2.53;;
42244;SDS011;27912;51.828;5.688;2024-02-26T04:51:47;4.25;;;3.03;;
42244;SDS011;27912;51.828;5.688;2024-02-26T04:54:13;6.28;;;2.90;;
42244;SDS011;27912;51.828;5.688;2024-02-26T04:56:39;6.88;;;3.15;;
42244;SDS011;27912;51.828;5.688;2024-02-26T04:59:04;4.97;;;2.92;;
42244;SDS011;27912;51.828;5.688;2024-02-26T05:01:30;7.93;;;4.38;;
42244;SDS011;27912;51.828;5.688;2024-02-26T05:03:55;6.78;;;2.70;;
42244;SDS011;27912;51.828;5.688;2024-02-26T05:06:21;4.72;;;2.97;;
42244;SDS011;27912;51.828;5.688;2024-02-26T05:08:46;5.45;;;2.35;;
42244;SDS011;27912;51.828;5.688;2024-02-26T05:11:12;5.00;;;3.70;;
42244;SDS011;27912;51.828;5.688;2024-02-26T05:13:38;5.75;;;3.25;;
42244;SDS011;27912;51.828;5.688;2024-02-26T05:16:03;5.22;;;3.70;;
42244;SDS011;27912;51.828;5.688;2024-02-26T05:18:29;6.50;;;3.78;;
42244;SDS011;27912;51.828;5.688;2024-02-26T05:20:55;5.93;;;3.35;;
42244;SDS011;27912;51.828;5.688;2024-02-26T05:23:20;5.55;;;3.58;;
42244;SDS011;27912;51.828;5.688;2024-02-26T05:25:46;6.47;;;3.72;;
42244;SDS011;27912;51.828;5.688;2024-02-26T05:28:13;5.32;;;3.97;;
42244;SDS011;27912;51.828;5.688;2024-02-26T05:30:40;5.25;;;3.45;;
42244;SDS011;27912;51.828;5.688;2024-02-26T05:33:06;6.10;;;3.88;;
42244;SDS011;27912;51.828;5.688;2024-02-26T05:35:32;8.38;;;3.97;;
42244;SDS011;27912;51.828;5.688;2024-02-26T05:37:57;5.88;;;4.00;;
42244;SDS011;27912;51.828;5.688;2024-02-26T05:40:23;3.95;;;2.38;;
42244;SDS011;27912;51.828;5.688;2024-02-26T05:42:48;8.07;;;3.72;;
42244;SDS011;27912;51.828;5.688;2024-02-26T05:45:14;7.78;;;3.50;;
42244;SDS011;27912;51.828;5.688;2024-02-26T05:47:40;4.30;;;2.92;;
42244;SDS011;27912;51.828;5.688;2024-02-26T05:50:08;4.40;;;2.85;;
42244;SDS011;27912;51.828;5.688;2024-02-26T05:52:37;4.88;;;3.17;;
42244;SDS011;27912;51.828;5.688;2024-02-26T05:55:03;6.78;;;2.90;;
42244;SDS011;27912;51.828;5.688;2024-02-26T05:57:30;4.03;;;2.60;;
42244;SDS011;27912;51.828;5.688;2024-02-26T05:59:56;4.32;;;2.55;;
42244;SDS011;27912;51.828;5.688;2024-02-26T06:02:25;5.80;;;3.13;;
42244;SDS011;27912;51.828;5.688;2024-02-26T06:04:51;5.03;;;2.13;;
42244;SDS011;27912;51.828;5.688;2024-02-26T06:07:16;4.13;;;2.55;;
42244;SDS011;27912;51.828;5.688;2024-02-26T06:09:42;4.10;;;2.72;;
42244;SDS011;27912;51.828;5.688;2024-02-26T06:12:08;6.05;;;3.50;;
42244;SDS011;27912;51.828;5.688;2024-02-26T06:14:33;6.15;;;3.45;;
42244;SDS011;27912;51.828;5.688;2024-02-26T06:16:59;4.97;;;2.70;;
42244;SDS011;27912;51.828;5.688;2024-02-26T06:19:24;5.00;;;3.28;;
42244;SDS011;27912;51.828;5.688;2024-02-26T06:21:50;4.97;;;2.72;;
42244;SDS011;27912;51.828;5.688;2024-02-26T06:24:16;4.28;;;2.70;;
42244;SDS011;27912;51.828;5.688;2024-02-26T06:26:41;4.85;;;3.60;;
42244;SDS011;27912;51.828;5.688;2024-02-26T06:29:07;7.80;;;3.10;;
42244;SDS011;27912;51.828;5.688;2024-02-26T06:31:32;5.93;;;3.65;;
42244;SDS011;27912;51.828;5.688;2024-02-26T06:33:58;6.75;;;3.65;;
42244;SDS011;27912;51.828;5.688;2024-02-26T06:36:24;5.60;;;3.67;;
42244;SDS011;27912;51.828;5.688;2024-02-26T06:38:50;6.63;;;3.70;;
42244;SDS011;27912;51.828;5.688;2024-02-26T06:41:18;7.38;;;4.38;;
42244;SDS011;27912;51.828;5.688;2024-02-26T06:43:44;6.28;;;4.45;;
42244;SDS011;27912;51.828;5.688;2024-02-26T06:46:10;6.25;;;4.10;;
42244;SDS011;27912;51.828;5.688;2024-02-26T06:48:35;6.38;;;4.30;;
42244;SDS011;27912;51.828;5.688;2024-02-26T06:51:02;8.48;;;4.40;;
42244;SDS011;27912;51.828;5.688;2024-02-26T06:53:27;7.35;;;4.90;;
42244;SDS011;27912;51.828;5.688;2024-02-26T06:55:53;6.30;;;4.03;;
42244;SDS011;27912;51.828;5.688;2024-02-26T06:58:19;6.90;;;4.43;;
42244;SDS011;27912;51.828;5.688;2024-02-26T07:00:49;6.47;;;4.28;;
42244;SDS011;27912;51.828;5.688;2024-02-26T07:03:21;6.75;;;4.05;;
42244;SDS011;27912;51.828;5.688;2024-02-26T07:05:47;6.53;;;3.95;;
42244;SDS011;27912;51.828;5.688;2024-02-26T07:08:13;6.28;;;4.22;;
42244;SDS011;27912;51.828;5.688;2024-02-26T07:10:39;5.65;;;3.42;;
42244;SDS011;27912;51.828;5.688;2024-02-26T07:13:04;6.43;;;4.32;;
42244;SDS011;27912;51.828;5.688;2024-02-26T07:15:30;6.05;;;4.28;;
42244;SDS011;27912;51.828;5.688;2024-02-26T07:17:57;7.60;;;4.53;;
42244;SDS011;27912;51.828;5.688;2024-02-26T07:20:27;7.65;;;4.28;;
42244;SDS011;27912;51.828;5.688;2024-02-26T07:22:54;6.15;;;4.25;;
42244;SDS011;27912;51.828;5.688;2024-02-26T07:25:20;7.85;;;5.45;;
42244;SDS011;27912;51.828;5.688;2024-02-26T07:27:46;9.45;;;4.75;;
42244;SDS011;27912;51.828;5.688;2024-02-26T07:30:11;6.32;;;4.47;;
42244;SDS011;27912;51.828;5.688;2024-02-26T07:32:37;8.55;;;5.35;;
42244;SDS011;27912;51.828;5.688;2024-02-26T07:35:03;9.57;;;4.90;;
42244;SDS011;27912;51.828;5.688;2024-02-26T07:37:30;9.18;;;5.22;;
42244;SDS011;27912;51.828;5.688;2024-02-26T07:39:55;6.53;;;4.63;;
42244;SDS011;27912;51.828;5.688;2024-02-26T07:42:21;7.18;;;4.65;;
42244;SDS011;27912;51.828;5.688;2024-02-26T07:44:47;7.35;;;3.33;;
42244;SDS011;27912;51.828;5.688;2024-02-26T07:47:12;7.55;;;5.47;;
42244;SDS011;27912;51.828;5.688;2024-02-26T07:49:39;7.57;;;5.10;;
42244;SDS011;27912;51.828;5.688;2024-02-26T07:52:04;8.82;;;5.95;;
42244;SDS011;27912;51.828;5.688;2024-02-26T07:54:30;9.00;;;6.13;;
42244;SDS011;27912;51.828;5.688;2024-02-26T07:56:56;8.68;;;5.82;;
42244;SDS011;27912;51.828;5.688;2024-02-26T07:59:21;8.60;;;5.47;;
42244;SDS011;27912;51.828;5.688;2024-02-26T08:01:50;11.10;;;7.00;;
42244;SDS011;27912;51.828;5.688;2024-02-26T08:04:16;8.95;;;6.18;;
42244;SDS011;27912;51.828;5.688;2024-02-26T08:06:42;12.07;;;6.55;;
42244;SDS011;27912;51.828;5.688;2024-02-26T08:09:08;12.00;;;7.07;;
42244;SDS011;27912;51.828;5.688;2024-02-26T08:11:34;12.85;;;7.80;;
42244;SDS011;27912;51.828;5.688;2024-02-26T08:13:59;12.07;;;7.97;;
42244;SDS011;27912;51.828;5.688;2024-02-26T08:16:25;12.85;;;7.95;;
42244;SDS011;27912;51.828;5.688;2024-02-26T08:18:51;12.57;;;7.00;;
42244;SDS011;27912;51.828;5.688;2024-02-26T08:21:17;13.93;;;9.20;;
42244;SDS011;27912;51.828;5.688;2024-02-26T08:23:43;11.90;;;8.30;;
42244;SDS011;27912;51.828;5.688;2024-02-26T08:26:09;15.05;;;9.30;;
42244;SDS011;27912;51.828;5.688;2024-02-26T08:28:39;17.02;;;9.75;;
42244;SDS011;27912;51.828;5.688;2024-02-26T08:31:04;16.35;;;10.18;;
42244;SDS011;27912;51.828;5.688;2024-02-26T08:33:30;16.88;;;9.02;;
42244;SDS011;27912;51.828;5.688;2024-02-26T08:35:56;17.40;;;10.82;;
42244;SDS011;27912;51.828;5.688;2024-02-26T08:38:23;14.98;;;9.95;;
42244;SDS011;27912;51.828;5.688;2024-02-26T08:40:49;17.65;;;10.93;;
42244;SDS011;27912;51.828;5.688;2024-02-26T08:43:15;19.30;;;10.98;;
42244;SDS011;27912;51.828;5.688;2024-02-26T08:45:41;20.27;;;11.70;;
42244;SDS011;27912;51.828;5.688;2024-02-26T08:48:06;17.05;;;10.43;;
42244;SDS011;27912;51.828;5.688;2024-02-26T08:50:32;17.35;;;10.93;;
42244;SDS011;27912;51.828;5.688;2024-02-26T08:52:58;20.23;;;12.50;;
42244;SDS011;27912;51.828;5.688;2024-02-26T08:55:26;16.95;;;11.45;;
42244;SDS011;27912;51.828;5.688;2024-02-26T08:57:51;19.35;;;11.18;;
42244;SDS011;27912;51.828;5.688;2024-02-26T09:00:18;20.13;;;12.30;;
42244;SDS011;27912;51.828;5.688;2024-02-26T09:02:47;18.52;;;10.80;;
42244;SDS011;27912;51.828;5.688;2024-02-26T09:05:13;20.23;;;12.18;;
42244;SDS011;27912;51.828;5.688;2024-02-26T09:07:40;19.65;;;10.45;;
42244;SDS011;27912;51.828;5.688;2024-02-26T09:10:09;20.60;;;11.02;;
42244;SDS011;27912;51.828;5.688;2024-02-26T09:12:35;19.27;;;11.23;;
42244;SDS011;27912;51.828;5.688;2024-02-26T09:15:05;19.75;;;11.65;;
42244;SDS011;27912;51.828;5.688;2024-02-26T09:17:32;20.90;;;11.05;;
42244;SDS011;27912;51.828;5.688;2024-02-26T09:19:58;18.35;;;10.35;;
42244;SDS011;27912;51.828;5.688;2024-02-26T09:22:23;19.30;;;11.10;;
42244;SDS011;27912;51.828;5.688;2024-02-26T09:24:49;19.77;;;11.80;;
42244;SDS011;27912;51.828;5.688;2024-02-26T09:27:16;18.02;;;10.27;;
42244;SDS011;27912;51.828;5.688;2024-02-26T09:29:42;19.42;;;10.98;;
42244;SDS011;27912;51.828;5.688;2024-02-26T09:32:07;18.27;;;11.00;;
42244;SDS011;27912;51.828;5.688;2024-02-26T09:34:33;20.77;;;11.90;;
42244;SDS011;27912;51.828;5.688;2024-02-26T09:36:59;20.73;;;11.40;;
42244;SDS011;27912;51.828;5.688;2024-02-26T09:39:25;20.20;;;10.80;;
42244;SDS011;27912;51.828;5.688;2024-02-26T09:41:52;24.58;;;12.40;;
42244;SDS011;27912;51.828;5.688;2024-02-26T09:44:19;22.98;;;12.40;;
42244;SDS011;27912;51.828;5.688;2024-02-26T09:46:48;18.92;;;10.52;;
42244;SDS011;27912;51.828;5.688;2024-02-26T09:49:15;22.08;;;12.60;;
42244;SDS011;27912;51.828;5.688;2024-02-26T09:51:40;23.58;;;12.52;;
42244;SDS011;27912;51.828;5.688;2024-02-26T09:54:07;17.63;;;9.85;;
42244;SDS011;27912;51.828;5.688;2024-02-26T09:56:35;25.35;;;12.57;;
42244;SDS011;27912;51.828;5.688;2024-02-26T09:59:03;24.77;;;11.68;;
42244;SDS011;27912;51.828;5.688;2024-02-26T10:01:33;24.17;;;12.90;;
42244;SDS011;27912;51.828;5.688;2024-02-26T10:04:00;24.08;;;12.25;;
42244;SDS011;27912;51.828;5.688;2024-02-26T10:06:26;24.30;;;12.45;;
42244;SDS011;27912;51.828;5.688;2024-02-26T10:08:53;28.05;;;14.02;;
42244;SDS011;27912;51.828;5.688;2024-02-26T10:11:19;24.55;;;12.65;;
42244;SDS011;27912;51.828;5.688;2024-02-26T10:13:47;21.88;;;9.90;;
42244;SDS011;27912;51.828;5.688;2024-02-26T10:16:12;28.80;;;14.10;;
42244;SDS011;27912;51.828;5.688;2024-02-26T10:18:49;28.35;;;13.00;;
42244;SDS011;27912;51.828;5.688;2024-02-26T10:21:18;23.83;;;12.15;;
42244;SDS011;27912;51.828;5.688;2024-02-26T10:23:47;24.25;;;12.10;;
42244;SDS011;27912;51.828;5.688;2024-02-26T10:26:14;23.98;;;12.43;;
42244;SDS011;27912;51.828;5.688;2024-02-26T10:28:44;20.70;;;11.15;;
42244;SDS011;27912;51.828;5.688;2024-02-26T10:31:10;22.38;;;11.45;;
42244;SDS011;27912;51.828;5.688;2024-02-26T10:33:37;20.50;;;10.98;;
42244;SDS011;27912;51.828;5.688;2024-02-26T10:36:07;22.17;;;11.77;;
42244;SDS011;27912;51.828;5.688;2024-02-26T10:38:33;22.73;;;12.50;;
42244;SDS011;27912;51.828;5.688;2024-02-26T10:41:01;50.55;;;26.38;;
42244;SDS011;27912;51.828;5.688;2024-02-26T10:43:28;27.52;;;15.27;;
42244;SDS011;27912;51.828;5.688;2024-02-26T10:45:57;23.58;;;12.73;;
42244;SDS011;27912;51.828;5.688;2024-02-26T10:48:23;19.35;;;11.18;;
42244;SDS011;27912;51.828;5.688;2024-02-26T10:50:48;20.33;;;11.65;;
42244;SDS011;27912;51.828;5.688;2024-02-26T10:53:25;20.92;;;11.02;;
42244;SDS011;27912;51.828;5.688;2024-02-26T10:55:55;20.65;;;10.93;;
42244;SDS011;27912;51.828;5.688;2024-02-26T10:58:25;19.42;;;11.18;;
42244;SDS011;27912;51.828;5.688;2024-02-26T11:00:52;21.42;;;12.32;;
42244;SDS011;27912;51.828;5.688;2024-02-26T11:03:18;19.27;;;11.13;;
42244;SDS011;27912;51.828;5.688;2024-02-26T11:05:49;20.73;;;11.30;;
42244;SDS011;27912;51.828;5.688;2024-02-26T11:08:21;22.15;;;11.35;;
42244;SDS011;27912;51.828;5.688;2024-02-26T11:10:47;20.08;;;11.45;;
42244;SDS011;27912;51.828;5.688;2024-02-26T11:13:15;18.77;;;10.60;;
42244;SDS011;27912;51.828;5.688;2024-02-26T11:15:43;19.65;;;11.45;;
42244;SDS011;27912;51.828;5.688;2024-02-26T11:18:12;23.02;;;11.20;;
42244;SDS011;27912;51.828;5.688;2024-02-26T11:20:40;19.88;;;11.50;;
42244;SDS011;27912;51.828;5.688;2024-02-26T11:23:07;22.25;;;11.05;;
42244;SDS011;27912;51.828;5.688;2024-02-26T11:25:34;22.20;;;12.23;;
42244;SDS011;27912;51.828;5.688;2024-02-26T11:28:01;22.92;;;12.45;;
42244;SDS011;27912;51.828;5.688;2024-02-26T11:30:30;23.17;;;11.25;;
42244;SDS011;27912;51.828;5.688;2024-02-26T11:32:59;21.77;;;12.27;;
42244;SDS011;27912;51.828;5.688;2024-02-26T11:35:26;23.00;;;13.00;;
42244;SDS011;27912;51.828;5.688;2024-02-26T11:37:54;24.98;;;13.55;;
42244;SDS011;27912;51.828;5.688;2024-02-26T11:40:24;22.08;;;12.73;;
42244;SDS011;27912;51.828;5.688;2024-02-26T11:42:50;21.55;;;12.55;;
42244;SDS011;27912;51.828;5.688;2024-02-26T11:48:16;21.27;;;12.88;;
42244;SDS011;27912;51.828;5.688;2024-02-26T11:50:46;23.13;;;13.85;;
42244;SDS011;27912;51.828;5.688;2024-02-26T11:58:48;24.10;;;13.93;;
42244;SDS011;27912;51.828;5.688;2024-02-26T12:04:06;22.55;;;12.43;;
42244;SDS011;27912;51.828;5.688;2024-02-26T12:06:51;24.58;;;12.43;;
42244;SDS011;27912;51.828;5.688;2024-02-26T12:12:04;20.15;;;12.70;;
42244;SDS011;27912;51.828;5.688;2024-02-26T12:15:14;21.17;;;12.27;;
42244;SDS011;27912;51.828;5.688;2024-02-26T12:17:23;25.10;;;14.18;;
42244;SDS011;27912;51.828;5.688;2024-02-26T12:19:50;20.02;;;11.23;;
42244;SDS011;27912;51.828;5.688;2024-02-26T12:22:18;22.25;;;11.55;;
42244;SDS011;27912;51.828;5.688;2024-02-26T12:24:44;24.67;;;12.43;;
42244;SDS011;27912;51.828;5.688;2024-02-26T12:27:10;20.80;;;12.15;;
42244;SDS011;27912;51.828;5.688;2024-02-26T12:29:36;20.13;;;11.80;;
42244;SDS011;27912;51.828;5.688;2024-02-26T12:32:02;22.17;;;11.52;;
42244;SDS011;27912;51.828;5.688;2024-02-26T12:34:29;18.50;;;11.13;;
42244;SDS011;27912;51.828;5.688;2024-02-26T12:36:55;18.48;;;10.02;;
42244;SDS011;27912;51.828;5.688;2024-02-26T12:39:20;20.38;;;10.13;;
42244;SDS011;27912;51.828;5.688;2024-02-26T12:41:46;17.48;;;10.68;;
42244;SDS011;27912;51.828;5.688;2024-02-26T12:44:24;16.85;;;9.82;;
42244;SDS011;27912;51.828;5.688;2024-02-26T12:46:50;16.65;;;9.23;;
42244;SDS011;27912;51.828;5.688;2024-02-26T12:49:24;18.50;;;10.68;;
42244;SDS011;27912;51.828;5.688;2024-02-26T12:51:50;16.25;;;9.25;;
42244;SDS011;27912;51.828;5.688;2024-02-26T12:54:16;15.45;;;8.85;;
42244;SDS011;27912;51.828;5.688;2024-02-26T12:56:41;16.13;;;9.48;;
42244;SDS011;27912;51.828;5.688;2024-02-26T12:59:07;15.77;;;9.30;;
42244;SDS011;27912;51.828;5.688;2024-02-26T13:01:33;15.98;;;8.77;;
42244;SDS011;27912;51.828;5.688;2024-02-26T13:03:59;16.45;;;9.32;;
42244;SDS011;27912;51.828;5.688;2024-02-26T13:06:31;12.55;;;7.78;;
42244;SDS011;27912;51.828;5.688;2024-02-26T13:08:59;13.48;;;7.57;;
42244;SDS011;27912;51.828;5.688;2024-02-26T13:11:26;15.85;;;8.07;;
42244;SDS011;27912;51.828;5.688;2024-02-26T13:13:54;11.45;;;7.63;;
42244;SDS011;27912;51.828;5.688;2024-02-26T13:16:20;14.13;;;7.40;;
42244;SDS011;27912;51.828;5.688;2024-02-26T13:18:49;12.20;;;6.90;;
42244;SDS011;27912;51.828;5.688;2024-02-26T13:21:15;12.32;;;7.43;;
42244;SDS011;27912;51.828;5.688;2024-02-26T13:23:43;12.63;;;7.60;;
42244;SDS011;27912;51.828;5.688;2024-02-26T13:26:13;12.00;;;7.07;;
42244;SDS011;27912;51.828;5.688;2024-02-26T13:28:39;13.35;;;7.70;;
42244;SDS011;27912;51.828;5.688;2024-02-26T13:31:05;14.48;;;7.93;;
42244;SDS011;27912;51.828;5.688;2024-02-26T13:33:32;15.60;;;8.60;;
42244;SDS011;27912;51.828;5.688;2024-02-26T13:35:59;15.15;;;7.43;;
42244;SDS011;27912;51.828;5.688;2024-02-26T13:38:25;13.57;;;7.90;;
42244;SDS011;27912;51.828;5.688;2024-02-26T13:40:52;11.63;;;7.55;;
42244;SDS011;27912;51.828;5.688;2024-02-26T13:43:18;14.35;;;7.20;;
42244;SDS011;27912;51.828;5.688;2024-02-26T13:45:44;16.25;;;8.98;;
42244;SDS011;27912;51.828;5.688;2024-02-26T13:48:11;12.93;;;7.40;;
42244;SDS011;27912;51.828;5.688;2024-02-26T13:50:38;11.45;;;7.72;;
42244;SDS011;27912;51.828;5.688;2024-02-26T13:53:04;16.55;;;9.30;;
42244;SDS011;27912;51.828;5.688;2024-02-26T13:55:30;14.10;;;8.90;;
42244;SDS011;27912;51.828;5.688;2024-02-26T13:57:57;14.57;;;8.18;;
42244;SDS011;27912;51.828;5.688;2024-02-26T14:00:24;15.55;;;7.82;;
42244;SDS011;27912;51.828;5.688;2024-02-26T14:02:50;15.85;;;9.18;;
42244;SDS011;27912;51.828;5.688;2024-02-26T14:05:16;14.48;;;9.00;;
42244;SDS011;27912;51.828;5.688;2024-02-26T14:07:42;13.00;;;7.88;;
42244;SDS011;27912;51.828;5.688;2024-02-26T14:10:08;14.60;;;9.57;;
42244;SDS011;27912;51.828;5.688;2024-02-26T14:12:35;16.35;;;8.32;;
42244;SDS011;27912;51.828;5.688;2024-02-26T14:15:00;15.13;;;8.10;;
42244;SDS011;27912;51.828;5.688;2024-02-26T14:17:29;16.13;;;9.73;;
42244;SDS011;27912;51.828;5.688;2024-02-26T14:19:55;15.82;;;9.50;;
42244;SDS011;27912;51.828;5.688;2024-02-26T14:22:21;13.85;;;8.30;;
42244;SDS011;27912;51.828;5.688;2024-02-26T14:24:46;14.98;;;9.25;;
42244;SDS011;27912;51.828;5.688;2024-02-26T14:27:12;16.40;;;9.30;;
42244;SDS011;27912;51.828;5.688;2024-02-26T14:29:42;16.45;;;9.10;;
42244;SDS011;27912;51.828;5.688;2024-02-26T14:32:09;14.25;;;8.63;;
42244;SDS011;27912;51.828;5.688;2024-02-26T14:34:34;17.73;;;8.88;;
42244;SDS011;27912;51.828;5.688;2024-02-26T14:37:00;17.67;;;9.88;;
42244;SDS011;27912;51.828;5.688;2024-02-26T14:39:27;12.80;;;8.07;;
42244;SDS011;27912;51.828;5.688;2024-02-26T14:41:52;15.55;;;8.30;;
42244;SDS011;27912;51.828;5.688;2024-02-26T14:44:18;15.43;;;8.63;;
42244;SDS011;27912;51.828;5.688;2024-02-26T14:46:43;15.32;;;9.27;;
42244;SDS011;27912;51.828;5.688;2024-02-26T14:49:09;12.10;;;7.43;;
42244;SDS011;27912;51.828;5.688;2024-02-26T14:51:36;14.20;;;8.43;;